Time;durP1;ratioP1;P1;durP2;ratioP2;P2;SDS_P1;SDS_P2;PMS_P1;PMS_P2;Temp;Humidity;BMP_temperature;BMP_pressure;BME280_temperature;BME280_humidity;BME280_pressure;Samples;Min_cycle;Max_cycle;Signal;HPM_P1;HPM_P2
2022/03/02 00:00:16;;;;;;;27.27;24.48;;;;;;;;;;4966417;28;20053;-77
2022/03/02 00:02:43;;;;;;;27.25;24.35;;;;;;;;;;4971746;28;20043;-78
2022/03/02 00:05:09;;;;;;;27.80;24.90;;;;;;;;;;4963083;28;21205;-78
2022/03/02 00:07:35;;;;;;;26.50;23.75;;;;;;;;;;4956948;28;20069;-78
2022/03/02 00:10:02;;;;;;;27.45;24.42;;;;;;;;;;4969998;28;20069;-79
2022/03/02 00:12:30;;;;;;;27.95;24.75;;;;;;;;;;4969219;28;20066;-78
2022/03/02 00:14:56;;;;;;;27.60;24.65;;;;;;;;;;4972797;28;20046;-78
2022/03/02 00:17:22;;;;;;;27.55;24.70;;;;;;;;;;4969825;28;20055;-78
2022/03/02 00:19:48;;;;;;;27.60;24.73;;;;;;;;;;4970081;28;20058;-78
2022/03/02 00:22:14;;;;;;;26.40;23.55;;;;;;;;;;4973878;28;20082;-79
2022/03/02 00:24:40;;;;;;;27.20;24.30;;;;;;;;;;4972834;28;20120;-78
2022/03/02 00:27:06;;;;;;;27.13;24.23;;;;;;;;;;4974206;28;20043;-78
2022/03/02 00:29:32;;;;;;;26.88;23.58;;;;;;;;;;4973673;28;20093;-78
2022/03/02 00:31:58;;;;;;;28.13;25.13;;;;;;;;;;4971677;28;20067;-79
2022/03/02 00:34:24;;;;;;;30.33;25.30;;;;;;;;;;4973594;28;20093;-78
2022/03/02 00:36:50;;;;;;;28.13;25.20;;;;;;;;;;4973731;28;20043;-79
2022/03/02 00:39:16;;;;;;;28.92;25.83;;;;;;;;;;5006458;28;20130;-79
2022/03/02 00:41:42;;;;;;;28.83;25.35;;;;;;;;;;4972317;28;20182;-78
2022/03/02 00:44:08;;;;;;;27.90;24.92;;;;;;;;;;4973793;28;20132;-77
2022/03/02 00:46:34;;;;;;;27.70;24.70;;;;;;;;;;4973457;28;20050;-78
2022/03/02 00:49:01;;;;;;;27.15;24.25;;;;;;;;;;4973647;28;20043;-79
2022/03/02 00:51:27;;;;;;;27.77;24.50;;;;;;;;;;4974020;28;20051;-79
2022/03/02 00:53:54;;;;;;;27.83;24.85;;;;;;;;;;4972762;28;20054;-79
2022/03/02 00:56:23;;;;;;;28.33;25.35;;;;;;;;;;4972846;28;20130;-79
2022/03/02 00:58:50;;;;;;;28.15;25.08;;;;;;;;;;4973333;28;20472;-79
2022/03/02 01:01:16;;;;;;;28.13;25.13;;;;;;;;;;4972131;28;20046;-78
2022/03/02 01:03:42;;;;;;;28.30;25.35;;;;;;;;;;4972130;28;20089;-78
2022/03/02 01:06:09;;;;;;;28.35;25.27;;;;;;;;;;4990025;28;20069;-78
2022/03/02 01:08:35;;;;;;;28.42;25.42;;;;;;;;;;4985652;28;20070;-79
2022/03/02 01:11:01;;;;;;;30.13;24.88;;;;;;;;;;4988826;28;20054;-79
2022/03/02 01:13:28;;;;;;;28.13;25.13;;;;;;;;;;4973115;28;20051;-78
2022/03/02 01:15:54;;;;;;;27.98;25.08;;;;;;;;;;4982049;28;20085;-78
2022/03/02 01:18:20;;;;;;;27.27;24.27;;;;;;;;;;4971479;28;20053;-79
2022/03/02 01:20:46;;;;;;;29.02;25.45;;;;;;;;;;4972750;28;20086;-79
2022/03/02 01:23:15;;;;;;;28.85;24.60;;;;;;;;;;4988193;28;20392;-78
2022/03/02 01:25:41;;;;;;;29.95;24.67;;;;;;;;;;4970980;28;20058;-78
2022/03/02 01:28:07;;;;;;;28.65;23.80;;;;;;;;;;4974456;28;20190;-78
2022/03/02 01:30:33;;;;;;;29.10;24.83;;;;;;;;;;4972850;28;20054;-79
2022/03/02 01:32:59;;;;;;;26.80;23.85;;;;;;;;;;4971095;28;20046;-79
2022/03/02 01:35:25;;;;;;;29.10;23.65;;;;;;;;;;4970286;28;20125;-78
2022/03/02 01:37:51;;;;;;;26.50;23.67;;;;;;;;;;4963322;28;20047;-79
2022/03/02 01:40:17;;;;;;;28.38;23.77;;;;;;;;;;4969642;28;20496;-79
2022/03/02 01:42:44;;;;;;;29.38;23.92;;;;;;;;;;4970940;28;20536;-79
2022/03/02 01:45:11;;;;;;;28.02;25.02;;;;;;;;;;4971094;28;20402;-78
2022/03/02 01:47:37;;;;;;;30.73;25.20;;;;;;;;;;4969180;28;20040;-78
2022/03/02 01:50:04;;;;;;;28.23;24.60;;;;;;;;;;4971407;28;20043;-79
2022/03/02 01:52:30;;;;;;;26.73;23.80;;;;;;;;;;4968336;28;20043;-79
2022/03/02 01:54:56;;;;;;;27.92;24.65;;;;;;;;;;4971817;28;20109;-79
2022/03/02 01:57:22;;;;;;;29.75;25.42;;;;;;;;;;4972575;28;20413;-78
2022/03/02 01:59:49;;;;;;;28.80;25.45;;;;;;;;;;4969291;28;20043;-79
2022/03/02 02:02:15;;;;;;;27.45;24.13;;;;;;;;;;4971597;28;20135;-78
2022/03/02 02:04:41;;;;;;;28.90;25.13;;;;;;;;;;4961009;28;20113;-78
2022/03/02 02:07:07;;;;;;;27.83;24.83;;;;;;;;;;4971542;28;20506;-78
2022/03/02 02:09:33;;;;;;;28.80;24.15;;;;;;;;;;4968804;28;20047;-79
2022/03/02 02:11:59;;;;;;;28.52;24.63;;;;;;;;;;4971457;28;20042;-79
2022/03/02 02:14:25;;;;;;;27.38;23.80;;;;;;;;;;4971412;28;20043;-79
2022/03/02 02:16:51;;;;;;;26.88;23.77;;;;;;;;;;4970708;28;20126;-79
2022/03/02 02:19:18;;;;;;;27.65;24.65;;;;;;;;;;4971871;28;20049;-79
2022/03/02 02:21:46;;;;;;;28.10;24.10;;;;;;;;;;4960991;28;20043;-79
2022/03/02 02:24:13;;;;;;;29.45;24.20;;;;;;;;;;4966984;28;20058;-79
2022/03/02 02:26:39;;;;;;;27.02;24.13;;;;;;;;;;5003371;28;20488;-78
2022/03/02 02:29:06;;;;;;;25.85;23.08;;;;;;;;;;4970255;28;20126;-78
2022/03/02 02:31:32;;;;;;;26.58;23.67;;;;;;;;;;4968315;28;20038;-79
2022/03/02 02:33:58;;;;;;;28.25;24.50;;;;;;;;;;4970509;28;20042;-79
2022/03/02 02:36:25;;;;;;;28.30;23.70;;;;;;;;;;4967713;28;20110;-79
2022/03/02 02:38:51;;;;;;;29.83;24.05;;;;;;;;;;4970375;28;20049;-78
2022/03/02 02:41:18;;;;;;;27.85;23.35;;;;;;;;;;4969870;28;20089;-79
2022/03/02 02:43:45;;;;;;;29.63;23.83;;;;;;;;;;4966531;28;20047;-78
2022/03/02 02:46:11;;;;;;;28.60;23.77;;;;;;;;;;4970492;28;20086;-78
2022/03/02 02:48:38;;;;;;;26.60;22.92;;;;;;;;;;4966383;28;20089;-78
2022/03/02 02:51:05;;;;;;;26.17;22.58;;;;;;;;;;4966916;28;20043;-78
2022/03/02 02:53:31;;;;;;;26.90;24.00;;;;;;;;;;4967641;28;20051;-79
2022/03/02 02:55:57;;;;;;;26.65;22.88;;;;;;;;;;4968713;28;20443;-79
2022/03/02 02:58:23;;;;;;;26.08;22.33;;;;;;;;;;4970407;28;20109;-79
2022/03/02 03:00:50;;;;;;;24.13;21.50;;;;;;;;;;4965704;28;20113;-78
2022/03/02 03:03:16;;;;;;;29.05;23.65;;;;;;;;;;4970301;28;20142;-78
2022/03/02 03:05:44;;;;;;;26.95;22.60;;;;;;;;;;4970156;28;20039;-78
2022/03/02 03:08:11;;;;;;;26.35;22.88;;;;;;;;;;4968210;28;20050;-79
2022/03/02 03:10:37;;;;;;;28.10;23.48;;;;;;;;;;4966863;28;20054;-78
2022/03/02 03:13:03;;;;;;;29.23;23.38;;;;;;;;;;4970666;28;20094;-78
2022/03/02 03:15:29;;;;;;;26.77;22.50;;;;;;;;;;4985964;28;20082;-79
2022/03/02 03:17:56;;;;;;;27.15;22.10;;;;;;;;;;4969345;28;20046;-79
2022/03/02 03:20:24;;;;;;;27.00;22.85;;;;;;;;;;4997247;28;20138;-79
2022/03/02 03:22:58;;;;;;;26.15;22.05;;;;;;;;;;4995662;28;20599;-77
2022/03/02 03:25:25;;;;;;;27.45;22.73;;;;;;;;;;4969051;28;20464;-79
2022/03/02 03:27:51;;;;;;;28.17;23.83;;;;;;;;;;4969692;28;20038;-78
2022/03/02 03:30:19;;;;;;;26.85;22.65;;;;;;;;;;4973172;28;20097;-78
2022/03/02 03:32:45;;;;;;;28.70;23.17;;;;;;;;;;4981525;28;20488;-79
2022/03/02 03:35:13;;;;;;;29.05;24.80;;;;;;;;;;4967251;28;20047;-79
2022/03/02 03:37:39;;;;;;;28.42;23.77;;;;;;;;;;4969840;28;20046;-78
2022/03/02 03:40:06;;;;;;;29.60;24.10;;;;;;;;;;4971350;28;20047;-79
2022/03/02 03:42:32;;;;;;;29.25;23.77;;;;;;;;;;4974221;28;20038;-78
2022/03/02 03:44:58;;;;;;;30.27;24.20;;;;;;;;;;4974452;28;20483;-78
2022/03/02 03:47:24;;;;;;;30.42;24.70;;;;;;;;;;4970787;28;20051;-78
2022/03/02 03:49:50;;;;;;;29.73;24.58;;;;;;;;;;4974318;28;20039;-78
2022/03/02 03:52:16;;;;;;;30.48;23.50;;;;;;;;;;4969442;28;20150;-78
2022/03/02 03:54:42;;;;;;;26.67;22.35;;;;;;;;;;4972634;28;20065;-78
2022/03/02 03:57:08;;;;;;;29.40;24.98;;;;;;;;;;4974448;28;20081;-78
2022/03/02 03:59:34;;;;;;;31.75;24.20;;;;;;;;;;4973656;28;20066;-78
2022/03/02 04:02:00;;;;;;;31.40;24.02;;;;;;;;;;4971013;28;20059;-78
2022/03/02 04:04:26;;;;;;;30.50;24.38;;;;;;;;;;4974305;28;20087;-78
2022/03/02 04:06:52;;;;;;;32.90;26.20;;;;;;;;;;4983799;28;20039;-79
2022/03/02 04:09:18;;;;;;;31.98;24.95;;;;;;;;;;4967981;28;20750;-79
2022/03/02 04:11:44;;;;;;;33.38;25.77;;;;;;;;;;4973058;28;20054;-79
2022/03/02 04:14:10;;;;;;;33.33;24.88;;;;;;;;;;4973818;28;20043;-78
2022/03/02 04:16:37;;;;;;;31.27;24.85;;;;;;;;;;5006199;28;20138;-79
2022/03/02 04:19:04;;;;;;;33.20;25.23;;;;;;;;;;4969709;28;20055;-78
2022/03/02 04:21:30;;;;;;;34.75;25.27;;;;;;;;;;4972688;28;20058;-79
2022/03/02 04:23:56;;;;;;;32.15;25.90;;;;;;;;;;4989173;28;20079;-79
2022/03/02 04:26:22;;;;;;;35.47;24.75;;;;;;;;;;5004651;28;20148;-78
2022/03/02 04:28:48;;;;;;;32.78;25.40;;;;;;;;;;4972373;28;20513;-79
2022/03/02 04:31:14;;;;;;;34.08;25.30;;;;;;;;;;4972285;28;20054;-78
2022/03/02 04:33:43;;;;;;;33.78;25.30;;;;;;;;;;4969742;28;20053;-78
2022/03/02 04:36:09;;;;;;;32.20;24.73;;;;;;;;;;4985765;28;20051;-78
2022/03/02 04:38:35;;;;;;;31.92;25.25;;;;;;;;;;4969196;28;20054;-79
2022/03/02 04:41:03;;;;;;;33.90;25.48;;;;;;;;;;4971673;28;20401;-78
2022/03/02 04:43:29;;;;;;;33.47;25.45;;;;;;;;;;4972970;28;20035;-78
2022/03/02 04:45:55;;;;;;;33.70;24.85;;;;;;;;;;4971643;28;20046;-78
2022/03/02 04:48:21;;;;;;;35.45;24.85;;;;;;;;;;4971506;28;20047;-79
2022/03/02 04:50:47;;;;;;;30.75;24.50;;;;;;;;;;4972187;28;20047;-78
2022/03/02 04:53:16;;;;;;;34.15;25.65;;;;;;;;;;4972374;28;20046;-78
2022/03/02 04:55:44;;;;;;;33.17;25.13;;;;;;;;;;4968019;28;20126;-78
2022/03/02 04:58:11;;;;;;;32.05;23.98;;;;;;;;;;4966317;28;20110;-78
2022/03/02 05:00:37;;;;;;;33.72;25.05;;;;;;;;;;4973201;28;20051;-79
2022/03/02 05:03:05;;;;;;;31.70;25.15;;;;;;;;;;4983271;28;20101;-78
2022/03/02 05:05:33;;;;;;;31.35;24.35;;;;;;;;;;4971896;28;20042;-78
2022/03/02 05:08:00;;;;;;;33.20;24.88;;;;;;;;;;4972051;28;20129;-78
2022/03/02 05:10:26;;;;;;;34.72;25.15;;;;;;;;;;4970588;28;20467;-78
2022/03/02 05:12:55;;;;;;;33.42;24.88;;;;;;;;;;4968564;28;20047;-78
2022/03/02 05:15:25;;;;;;;33.53;26.13;;;;;;;;;;4971855;28;20126;-78
2022/03/02 05:17:51;;;;;;;34.60;25.10;;;;;;;;;;4968431;28;20047;-79
2022/03/02 05:20:18;;;;;;;33.95;24.33;;;;;;;;;;4973923;28;20223;-79
2022/03/02 05:22:44;;;;;;;33.35;24.70;;;;;;;;;;4970805;28;20054;-78
2022/03/02 05:25:12;;;;;;;34.42;25.17;;;;;;;;;;4970264;28;20097;-78
2022/03/02 05:27:38;;;;;;;32.08;24.45;;;;;;;;;;4974214;28;20561;-78
2022/03/02 05:30:05;;;;;;;30.55;25.23;;;;;;;;;;4988425;28;20394;-78
2022/03/02 05:32:31;;;;;;;31.42;25.48;;;;;;;;;;4971973;28;20406;-78
2022/03/02 05:34:57;;;;;;;31.05;24.40;;;;;;;;;;4974158;28;20043;-78
2022/03/02 05:37:23;;;;;;;32.58;25.80;;;;;;;;;;4972605;28;20055;-78
2022/03/02 05:39:49;;;;;;;33.00;26.80;;;;;;;;;;4965804;28;20578;-78
2022/03/02 05:42:15;;;;;;;33.85;25.55;;;;;;;;;;4973540;28;20054;-78
2022/03/02 05:44:41;;;;;;;31.70;25.30;;;;;;;;;;4970979;28;20050;-78
2022/03/02 05:47:07;;;;;;;34.75;26.52;;;;;;;;;;4972797;28;20126;-78
2022/03/02 05:49:36;;;;;;;31.60;24.58;;;;;;;;;;4969157;28;20051;-78
2022/03/02 05:52:02;;;;;;;33.53;25.42;;;;;;;;;;4970927;28;20082;-78
2022/03/02 05:54:30;;;;;;;31.85;25.70;;;;;;;;;;4973710;28;20105;-78
2022/03/02 05:56:56;;;;;;;30.10;24.85;;;;;;;;;;4973430;28;20274;-78
2022/03/02 05:59:22;;;;;;;31.60;25.15;;;;;;;;;;5003858;28;20051;-78
2022/03/02 06:01:49;;;;;;;31.63;25.65;;;;;;;;;;4970761;28;20038;-78
2022/03/02 06:04:15;;;;;;;32.15;25.27;;;;;;;;;;4972582;28;20035;-78
2022/03/02 06:06:42;;;;;;;29.27;24.88;;;;;;;;;;4970278;28;20054;-78
2022/03/02 06:09:09;;;;;;;30.08;25.25;;;;;;;;;;4969230;28;20357;-78
2022/03/02 06:11:36;;;;;;;31.75;26.27;;;;;;;;;;4969750;28;20051;-78
2022/03/02 06:14:03;;;;;;;30.65;25.60;;;;;;;;;;4988829;28;20043;-78
2022/03/02 06:16:29;;;;;;;36.58;30.23;;;;;;;;;;4986778;28;20586;-79
2022/03/02 06:18:55;;;;;;;42.40;30.30;;;;;;;;;;4967495;28;20121;-78
2022/03/02 06:21:28;;;;;;;32.50;25.60;;;;;;;;;;4968551;28;20134;-79
2022/03/02 06:23:55;;;;;;;31.20;26.25;;;;;;;;;;4972624;28;20034;-78
2022/03/02 06:26:25;;;;;;;31.90;26.70;;;;;;;;;;4969270;28;20141;-78
2022/03/02 06:28:51;;;;;;;32.85;25.10;;;;;;;;;;4971683;28;22047;-78
2022/03/02 06:31:18;;;;;;;34.17;26.95;;;;;;;;;;4972799;28;20099;-79
2022/03/02 06:33:44;;;;;;;30.70;25.02;;;;;;;;;;4971481;28;20050;-79
2022/03/02 06:36:10;;;;;;;32.22;26.02;;;;;;;;;;4972708;28;20051;-78
2022/03/02 06:38:36;;;;;;;30.27;25.13;;;;;;;;;;4972365;28;20736;-78
2022/03/02 06:41:03;;;;;;;32.60;25.80;;;;;;;;;;4970045;28;20058;-79
2022/03/02 06:43:33;;;;;;;30.98;25.02;;;;;;;;;;4972636;28;20073;-78
2022/03/02 06:46:20;;;;;;;32.97;25.70;;;;;;;;;;4973087;28;20053;-78
2022/03/02 06:48:51;;;;;;;31.20;25.88;;;;;;;;;;4966276;28;20062;-78
2022/03/02 06:51:20;;;;;;;31.52;25.33;;;;;;;;;;4979617;28;20058;-78
2022/03/02 06:53:46;;;;;;;32.10;25.30;;;;;;;;;;4967850;28;20035;-76
2022/03/02 06:56:12;;;;;;;33.05;26.80;;;;;;;;;;4967428;28;20046;-78
2022/03/02 06:58:46;;;;;;;29.92;25.35;;;;;;;;;;4968664;28;20057;-78
2022/03/02 07:01:14;;;;;;;29.92;25.60;;;;;;;;;;5001134;28;20047;-79
2022/03/02 07:03:42;;;;;;;31.17;25.55;;;;;;;;;;4968485;28;20043;-78
2022/03/02 07:06:10;;;;;;;29.52;23.65;;;;;;;;;;4986536;28;20153;-78
2022/03/02 07:08:36;;;;;;;30.55;25.38;;;;;;;;;;4992699;28;20466;-78
2022/03/02 07:11:02;;;;;;;30.52;24.80;;;;;;;;;;4970130;28;20038;-79
2022/03/02 07:13:30;;;;;;;30.15;24.55;;;;;;;;;;4973140;28;20043;-79
2022/03/02 07:15:58;;;;;;;32.55;26.70;;;;;;;;;;4971497;28;20061;-78
2022/03/02 07:18:24;;;;;;;29.42;24.33;;;;;;;;;;4975249;28;20058;-78
2022/03/02 07:20:51;;;;;;;30.60;25.23;;;;;;;;;;4974767;28;20065;-79
2022/03/02 07:23:18;;;;;;;30.48;25.20;;;;;;;;;;4974648;28;20054;-79
2022/03/02 07:25:45;;;;;;;29.60;25.40;;;;;;;;;;5005021;28;20417;-78
2022/03/02 07:28:12;;;;;;;29.13;25.00;;;;;;;;;;4975376;28;20051;-79
2022/03/02 07:30:38;;;;;;;28.48;25.20;;;;;;;;;;4974677;28;20051;-79
2022/03/02 07:33:04;;;;;;;28.60;24.63;;;;;;;;;;4974919;28;20509;-79
2022/03/02 07:35:33;;;;;;;29.55;24.90;;;;;;;;;;4976301;28;20050;-78
2022/03/02 07:37:59;;;;;;;29.15;24.65;;;;;;;;;;5005846;28;20054;-78
2022/03/02 07:40:26;;;;;;;29.35;24.67;;;;;;;;;;4976173;28;20051;-78
2022/03/02 07:42:52;;;;;;;27.23;23.50;;;;;;;;;;4969194;28;21423;-78
2022/03/02 07:45:18;;;;;;;28.58;23.85;;;;;;;;;;5002390;28;20129;-78
2022/03/02 07:47:45;;;;;;;27.85;24.52;;;;;;;;;;4976066;28;20054;-79
2022/03/02 07:50:13;;;;;;;29.33;25.25;;;;;;;;;;4975549;28;20057;-78
2022/03/02 07:52:39;;;;;;;29.63;24.50;;;;;;;;;;4974497;28;20464;-78
2022/03/02 07:55:09;;;;;;;27.58;24.55;;;;;;;;;;4974943;28;20043;-79
2022/03/02 07:57:38;;;;;;;27.80;24.10;;;;;;;;;;4974579;28;20081;-79
2022/03/02 08:00:05;;;;;;;28.60;24.67;;;;;;;;;;4977882;28;20050;-79
2022/03/02 08:02:32;;;;;;;32.47;26.10;;;;;;;;;;4975801;28;20041;-78
2022/03/02 08:04:58;;;;;;;30.20;24.58;;;;;;;;;;4977112;28;20470;-78
2022/03/02 08:07:24;;;;;;;26.63;23.60;;;;;;;;;;4978555;28;20097;-78
2022/03/02 08:09:52;;;;;;;27.45;24.05;;;;;;;;;;4976125;28;20055;-78
2022/03/02 08:12:22;;;;;;;28.90;24.50;;;;;;;;;;4972483;28;20051;-79
2022/03/02 08:14:48;;;;;;;30.00;23.88;;;;;;;;;;4976916;28;20137;-79
2022/03/02 08:17:14;;;;;;;28.38;24.00;;;;;;;;;;4989092;28;20047;-78
2022/03/02 08:19:40;;;;;;;27.48;23.90;;;;;;;;;;4975935;28;20038;-78
2022/03/02 08:22:11;;;;;;;28.17;23.50;;;;;;;;;;4978610;28;20051;-79
2022/03/02 08:24:42;;;;;;;27.05;22.38;;;;;;;;;;4975432;28;20388;-78
2022/03/02 08:27:13;;;;;;;28.15;24.70;;;;;;;;;;4974614;28;20047;-78
2022/03/02 08:29:39;;;;;;;29.42;23.60;;;;;;;;;;4978266;28;20174;-78
2022/03/02 08:32:06;;;;;;;27.58;23.85;;;;;;;;;;4977161;28;20129;-78
2022/03/02 08:34:32;;;;;;;29.08;24.70;;;;;;;;;;5004414;28;20050;-78
2022/03/02 08:36:59;;;;;;;26.48;23.35;;;;;;;;;;4974570;28;20050;-78
2022/03/02 08:39:25;;;;;;;27.00;22.98;;;;;;;;;;4971610;28;20466;-78
2022/03/02 08:41:51;;;;;;;26.83;22.67;;;;;;;;;;4977083;28;20043;-77
2022/03/02 08:44:18;;;;;;;27.35;22.60;;;;;;;;;;4975001;28;20086;-78
2022/03/02 08:46:47;;;;;;;27.10;23.67;;;;;;;;;;4973546;28;20519;-78
2022/03/02 08:49:13;;;;;;;28.63;24.27;;;;;;;;;;4974360;28;20518;-78
2022/03/02 08:51:40;;;;;;;27.58;23.00;;;;;;;;;;4974835;28;20511;-78
2022/03/02 08:54:07;;;;;;;27.70;23.50;;;;;;;;;;4973880;28;20106;-78
2022/03/02 08:56:36;;;;;;;27.70;23.83;;;;;;;;;;4973786;28;20062;-78
2022/03/02 08:59:02;;;;;;;27.85;22.98;;;;;;;;;;4974136;28;20051;-77
2022/03/02 09:01:29;;;;;;;26.90;23.45;;;;;;;;;;4971577;28;20047;-78
2022/03/02 09:03:58;;;;;;;28.48;25.35;;;;;;;;;;4973861;28;20484;-78
2022/03/02 09:06:25;;;;;;;27.27;23.15;;;;;;;;;;5005354;28;20043;-77
2022/03/02 09:08:51;;;;;;;27.88;23.27;;;;;;;;;;4973337;28;20109;-77
2022/03/02 09:11:17;;;;;;;26.83;23.67;;;;;;;;;;4974782;28;20054;-78
2022/03/02 09:13:43;;;;;;;29.23;23.88;;;;;;;;;;5005192;28;20565;-78
2022/03/02 09:16:10;;;;;;;27.30;24.08;;;;;;;;;;4972633;28;20050;-78
2022/03/02 09:18:36;;;;;;;27.08;24.15;;;;;;;;;;4974180;28;20050;-79
2022/03/02 09:21:04;;;;;;;26.60;22.33;;;;;;;;;;4977430;28;20054;-78
2022/03/02 09:23:31;;;;;;;30.95;24.15;;;;;;;;;;4972733;28;20054;-78
2022/03/02 09:25:59;;;;;;;26.83;23.35;;;;;;;;;;4973123;28;20074;-78
2022/03/02 09:28:28;;;;;;;29.33;23.92;;;;;;;;;;4973839;28;20046;-78
2022/03/02 09:30:54;;;;;;;26.58;23.58;;;;;;;;;;4972934;28;20067;-78
2022/03/02 09:33:22;;;;;;;26.70;23.33;;;;;;;;;;4972506;28;20517;-78
2022/03/02 09:35:48;;;;;;;27.75;23.35;;;;;;;;;;4973012;28;20054;-78
2022/03/02 09:38:14;;;;;;;25.60;22.67;;;;;;;;;;4971657;28;20054;-78
2022/03/02 09:40:44;;;;;;;25.80;22.95;;;;;;;;;;4973488;28;20066;-78
2022/03/02 09:43:16;;;;;;;25.88;22.98;;;;;;;;;;4973822;28;20446;-78
2022/03/02 09:45:43;;;;;;;27.52;23.05;;;;;;;;;;5005619;28;20046;-78
2022/03/02 09:48:12;;;;;;;28.02;24.33;;;;;;;;;;4974112;28;20067;-78
2022/03/02 09:50:39;;;;;;;27.52;23.42;;;;;;;;;;5004416;28;20081;-78
2022/03/02 09:53:08;;;;;;;27.30;22.95;;;;;;;;;;4974157;28;20051;-78
2022/03/02 09:55:35;;;;;;;27.05;22.95;;;;;;;;;;5004671;28;20045;-78
2022/03/02 09:58:03;;;;;;;25.67;22.35;;;;;;;;;;4972926;28;20039;-78
2022/03/02 10:00:30;;;;;;;26.58;22.88;;;;;;;;;;5005491;28;20055;-78
2022/03/02 10:02:58;;;;;;;25.98;21.92;;;;;;;;;;5004284;28;20047;-78
2022/03/02 10:05:25;;;;;;;27.30;23.23;;;;;;;;;;4972849;28;20072;-78
2022/03/02 10:08:01;;;;;;;25.48;22.75;;;;;;;;;;4973956;28;20047;-78
2022/03/02 10:10:33;;;;;;;28.05;22.45;;;;;;;;;;4973211;28;20054;-78
2022/03/02 10:13:01;;;;;;;26.33;23.33;;;;;;;;;;4957599;28;20050;-79
2022/03/02 10:15:27;;;;;;;26.33;23.58;;;;;;;;;;4957200;28;20050;-79
2022/03/02 10:17:54;;;;;;;26.42;23.60;;;;;;;;;;4972349;28;20130;-79
2022/03/02 10:20:24;;;;;;;26.17;23.35;;;;;;;;;;5002201;28;20051;-79
2022/03/02 10:22:58;;;;;;;25.90;22.83;;;;;;;;;;4985731;28;20212;-79
2022/03/02 10:25:25;;;;;;;;;;;;;;;;;;4971322;28;20055;-79
2022/03/02 10:27:54;;;;;;;28.52;22.65;;;;;;;;;;4973826;28;20005;-78
2022/03/02 10:30:20;;;;;;;24.73;21.98;;;;;;;;;;4975137;28;20491;-80
2022/03/02 10:32:49;;;;;;;25.85;23.05;;;;;;;;;;4972868;28;20093;-79
2022/03/02 10:35:20;;;;;;;24.98;22.27;;;;;;;;;;4966172;28;20101;-78
2022/03/02 10:37:52;;;;;;;25.17;22.55;;;;;;;;;;4983050;28;20532;-78
2022/03/02 10:40:24;;;;;;;25.52;22.60;;;;;;;;;;4991152;28;20500;-79
2022/03/02 10:42:50;;;;;;;25.00;22.20;;;;;;;;;;4997560;28;20466;-78
2022/03/02 10:45:16;;;;;;;25.60;22.42;;;;;;;;;;4968991;28;20062;-78
2022/03/02 10:47:46;;;;;;;27.10;22.45;;;;;;;;;;4974145;28;20102;-78
2022/03/02 10:50:13;;;;;;;25.30;22.70;;;;;;;;;;4992248;28;20069;-78
2022/03/02 10:52:39;;;;;;;24.90;21.70;;;;;;;;;;4987402;28;20054;-78
2022/03/02 10:55:07;;;;;;;24.80;22.10;;;;;;;;;;4990162;28;20140;-78
2022/03/02 10:57:33;;;;;;;25.52;21.25;;;;;;;;;;4970865;28;20407;-79
2022/03/02 11:00:03;;;;;;;23.52;21.00;;;;;;;;;;4968774;28;20051;-78
2022/03/02 11:02:30;;;;;;;24.77;21.48;;;;;;;;;;4975551;28;20394;-78
2022/03/02 11:05:01;;;;;;;25.55;22.85;;;;;;;;;;4971647;28;20137;-78
2022/03/02 11:07:28;;;;;;;23.92;21.52;;;;;;;;;;4972183;28;20046;-78
2022/03/02 11:09:54;;;;;;;26.17;22.00;;;;;;;;;;4971268;28;20479;-79
2022/03/02 11:12:20;;;;;;;24.40;21.83;;;;;;;;;;4994726;28;20046;-79
2022/03/02 11:15:13;;;;;;;25.90;21.65;;;;;;;;;;4974827;28;20105;-78
2022/03/02 11:17:56;;;;;;;24.38;21.77;;;;;;;;;;4971319;28;20051;-78
2022/03/02 11:20:22;;;;;;;24.67;21.90;;;;;;;;;;4953287;28;20475;-79
2022/03/02 11:22:56;;;;;;;25.15;21.27;;;;;;;;;;4969148;28;20046;-79
2022/03/02 11:25:41;;;;;;;24.35;21.85;;;;;;;;;;4970905;28;20086;-79
2022/03/02 11:28:07;;;;;;;23.63;21.10;;;;;;;;;;4976756;28;20043;-79
2022/03/02 11:30:37;;;;;;;24.77;20.85;;;;;;;;;;4971448;28;20068;-79
2022/03/02 11:33:07;;;;;;;23.17;20.63;;;;;;;;;;4972038;28;20058;-79
2022/03/02 11:35:37;;;;;;;24.27;21.58;;;;;;;;;;4967981;28;20039;-76
2022/03/02 11:38:04;;;;;;;24.52;21.90;;;;;;;;;;4970032;28;20065;-79
2022/03/02 11:40:41;;;;;;;24.17;21.02;;;;;;;;;;4974399;28;20039;-78
2022/03/02 11:43:14;;;;;;;24.63;22.13;;;;;;;;;;4967627;28;20053;-78
2022/03/02 11:45:40;;;;;;;24.85;22.20;;;;;;;;;;4970923;28;20046;-78
2022/03/02 11:48:10;;;;;;;24.00;21.50;;;;;;;;;;4971669;28;20110;-78
2022/03/02 11:50:36;;;;;;;23.42;20.98;;;;;;;;;;4971119;28;20039;-78
2022/03/02 11:53:07;;;;;;;23.83;21.30;;;;;;;;;;4971654;28;20070;-78
2022/03/02 11:55:33;;;;;;;23.73;21.25;;;;;;;;;;4963299;28;20125;-78
2022/03/02 11:58:00;;;;;;;24.70;22.00;;;;;;;;;;4966931;28;20450;-78
2022/03/02 12:00:27;;;;;;;25.10;22.35;;;;;;;;;;4971876;28;20039;-79
2022/03/02 12:03:02;;;;;;;24.20;21.65;;;;;;;;;;4973638;28;20085;-79
2022/03/02 12:05:30;;;;;;;24.38;21.20;;;;;;;;;;4972961;28;20047;-77
2022/03/02 12:08:02;;;;;;;23.67;20.13;;;;;;;;;;4971491;28;20371;-78
2022/03/02 12:10:32;;;;;;;24.00;20.83;;;;;;;;;;4961496;28;20051;-79
2022/03/02 12:12:59;;;;;;;22.67;20.30;;;;;;;;;;4970498;28;20101;-79
2022/03/02 12:15:26;;;;;;;23.88;21.48;;;;;;;;;;4973714;28;20049;-79
2022/03/02 12:17:53;;;;;;;24.33;21.83;;;;;;;;;;4973366;28;20034;-79
2022/03/02 12:20:23;;;;;;;23.95;21.45;;;;;;;;;;4972952;28;20067;-79
2022/03/02 12:22:55;;;;;;;23.27;20.88;;;;;;;;;;4971749;28;20050;-79
2022/03/02 12:25:23;;;;;;;22.83;20.52;;;;;;;;;;4972734;28;20047;-78
2022/03/02 12:28:09;;;;;;;23.45;20.95;;;;;;;;;;4974428;28;20559;-79
2022/03/02 12:30:36;;;;;;;23.45;20.95;;;;;;;;;;4974678;28;20110;-79
2022/03/02 12:33:02;;;;;;;23.60;21.20;;;;;;;;;;4974067;28;20070;-79
2022/03/02 12:35:28;;;;;;;23.00;20.50;;;;;;;;;;4973881;28;20051;-79
2022/03/02 12:37:57;;;;;;;25.00;21.83;;;;;;;;;;4974843;28;20399;-79
2022/03/02 12:40:26;;;;;;;25.00;22.45;;;;;;;;;;5003270;28;20043;-79
2022/03/02 12:42:53;;;;;;;23.55;21.17;;;;;;;;;;4966398;28;20094;-79
2022/03/02 12:45:20;;;;;;;24.58;22.05;;;;;;;;;;4987467;28;20511;-79
2022/03/02 12:47:46;;;;;;;23.15;20.67;;;;;;;;;;4967657;28;20398;-79
2022/03/02 12:50:13;;;;;;;21.52;19.30;;;;;;;;;;4973973;28;20455;-79
2022/03/02 12:52:39;;;;;;;22.80;20.40;;;;;;;;;;4973359;28;20058;-79
2022/03/02 12:55:06;;;;;;;23.55;20.63;;;;;;;;;;4972376;28;20448;-79
2022/03/02 12:57:35;;;;;;;21.58;19.27;;;;;;;;;;4972277;28;20511;-79
2022/03/02 13:00:04;;;;;;;23.20;20.90;;;;;;;;;;4967526;28;20039;-79
2022/03/02 13:02:32;;;;;;;21.40;19.20;;;;;;;;;;4974632;28;20487;-79
2022/03/02 13:04:58;;;;;;;22.23;19.92;;;;;;;;;;4982759;28;20054;-77
2022/03/02 13:07:33;;;;;;;21.90;19.60;;;;;;;;;;4972899;28;20559;-78
2022/03/02 13:10:01;;;;;;;21.65;19.27;;;;;;;;;;4988903;28;20035;-78
2022/03/02 13:12:31;;;;;;;22.40;19.42;;;;;;;;;;4974332;28;20054;-78
2022/03/02 13:14:58;;;;;;;21.60;19.50;;;;;;;;;;4973856;28;20398;-78
2022/03/02 13:17:25;;;;;;;21.25;19.05;;;;;;;;;;4973866;28;20190;-79
2022/03/02 13:19:58;;;;;;;21.75;19.52;;;;;;;;;;4975016;28;20207;-78
2022/03/02 13:22:24;;;;;;;21.13;18.92;;;;;;;;;;5004895;28;20051;-78
2022/03/02 13:24:54;;;;;;;19.73;17.70;;;;;;;;;;4974600;28;20035;-78
2022/03/02 13:27:21;;;;;;;21.73;19.52;;;;;;;;;;4967584;28;20043;-79
2022/03/02 13:29:52;;;;;;;21.75;19.55;;;;;;;;;;4972396;28;20113;-77
2022/03/02 13:32:18;;;;;;;19.98;18.08;;;;;;;;;;4972722;28;20466;-78
2022/03/02 13:35:03;;;;;;;19.17;17.27;;;;;;;;;;4974447;28;20139;-78
2022/03/02 13:37:48;;;;;;;20.08;18.05;;;;;;;;;;4972569;28;20156;-78
2022/03/02 13:40:35;;;;;;;19.60;17.70;;;;;;;;;;4989636;28;20084;-78
2022/03/02 13:43:22;;;;;;;21.00;18.90;;;;;;;;;;4994927;28;20133;-78
2022/03/02 13:46:08;;;;;;;22.33;20.13;;;;;;;;;;4959903;28;20145;-79
2022/03/02 13:48:34;;;;;;;18.42;16.63;;;;;;;;;;4971223;28;20067;-79
2022/03/02 13:51:03;;;;;;;19.88;17.95;;;;;;;;;;4972246;28;20046;-79
2022/03/02 13:53:36;;;;;;;19.98;18.10;;;;;;;;;;4975774;28;20069;-79
2022/03/02 13:56:10;;;;;;;21.30;19.30;;;;;;;;;;5008734;28;20057;-79
2022/03/02 13:58:37;;;;;;;18.98;17.25;;;;;;;;;;4989646;28;20078;-80
2022/03/02 14:01:11;;;;;;;19.85;17.77;;;;;;;;;;4973326;28;20053;-79
2022/03/02 14:03:43;;;;;;;17.75;16.08;;;;;;;;;;5004817;28;20506;-78
2022/03/02 14:06:10;;;;;;;18.52;16.83;;;;;;;;;;4991977;28;20403;-79
2022/03/02 14:08:42;;;;;;;19.75;17.95;;;;;;;;;;4979713;28;20384;-79
2022/03/02 14:11:09;;;;;;;20.33;18.42;;;;;;;;;;4988280;28;20073;-79
2022/03/02 14:13:35;;;;;;;20.38;18.52;;;;;;;;;;4973133;28;20045;-79
2022/03/02 14:16:02;;;;;;;19.90;18.13;;;;;;;;;;4972696;28;20047;-79
2022/03/02 14:18:34;;;;;;;19.92;18.23;;;;;;;;;;4954323;28;20047;-79
2022/03/02 14:21:08;;;;;;;20.33;18.42;;;;;;;;;;4989299;28;20066;-79